Time;durP1;ratioP1;P1;durP2;ratioP2;P2;SDS_P1;SDS_P2;PMS_P1;PMS_P2;Temp;Humidity;BMP_temperature;BMP_pressure;BME280_temperature;BME280_humidity;BME280_pressure;Samples;Min_cycle;Max_cycle;Signal;HPM_P1;HPM_P2
2022/05/01 00:00:57;;;;;;;7.68;3.05;;;;;;;;;;5086125;28;20486;-49
2022/05/01 00:03:36;;;;;;;6.95;3.40;;;;;;;;;;5067197;28;20059;-51
2022/05/01 00:06:04;;;;;;;9.40;3.28;;;;;;;;;;5082285;28;20032;-50
2022/05/01 00:08:30;;;;;;;6.85;3.30;;;;;;;;;;5072972;28;20033;-51
2022/05/01 00:10:56;;;;;;;6.45;3.28;;;;;;;;;;5090459;28;20032;-50
2022/05/01 00:13:23;;;;;;;5.68;3.20;;;;;;;;;;5077795;28;20043;-51
2022/05/01 00:15:49;;;;;;;8.73;3.67;;;;;;;;;;5087426;28;20050;-47
2022/05/01 00:18:15;;;;;;;6.63;3.10;;;;;;;;;;5061287;28;20033;-47
2022/05/01 00:20:41;;;;;;;5.03;3.20;;;;;;;;;;5085271;28;20028;-49
2022/05/01 00:23:08;;;;;;;7.10;3.42;;;;;;;;;;5083669;28;20391;-49
2022/05/01 00:25:34;;;;;;;8.38;3.35;;;;;;;;;;5067792;28;20077;-47
2022/05/01 00:28:00;;;;;;;8.60;3.40;;;;;;;;;;5083693;28;20087;-46
2022/05/01 00:30:26;;;;;;;5.63;3.33;;;;;;;;;;5072889;28;20488;-49
2022/05/01 00:38:24;;;;;;;7.68;3.50;;;;;;;;;;5058003;28;20027;-49
2022/05/01 00:40:50;;;;;;;6.13;3.60;;;;;;;;;;5082567;28;20034;-49
2022/05/01 00:43:16;;;;;;;6.50;3.13;;;;;;;;;;5091279;28;20483;-46
2022/05/01 00:45:42;;;;;;;5.50;3.08;;;;;;;;;;5072561;28;20035;-47
2022/05/01 00:48:08;;;;;;;4.80;2.95;;;;;;;;;;5084208;28;20021;-49
2022/05/01 00:50:35;;;;;;;5.63;3.53;;;;;;;;;;5079163;28;20042;-50
2022/05/01 00:53:01;;;;;;;5.60;3.40;;;;;;;;;;5080642;28;20055;-47
2022/05/01 00:55:28;;;;;;;4.80;3.38;;;;;;;;;;5081477;28;20089;-50
2022/05/01 00:57:54;;;;;;;6.55;3.03;;;;;;;;;;5071236;28;20103;-51
2022/05/01 01:00:20;;;;;;;7.43;3.13;;;;;;;;;;5077767;28;20512;-45
2022/05/01 01:02:47;;;;;;;4.05;3.00;;;;;;;;;;5067233;28;20020;-49
2022/05/01 01:05:13;;;;;;;8.20;3.08;;;;;;;;;;5073323;28;20047;-47
2022/05/01 01:07:39;;;;;;;6.53;3.20;;;;;;;;;;5088624;28;20020;-47
2022/05/01 01:10:06;;;;;;;5.22;3.22;;;;;;;;;;5077626;28;20477;-50
2022/05/01 01:15:16;;;;;;;4.45;2.40;;;;;;;;;;5080067;28;20067;-49
2022/05/01 01:17:43;;;;;;;4.10;2.97;;;;;;;;;;5068280;28;20115;-49
2022/05/01 01:20:11;;;;;;;5.35;3.55;;;;;;;;;;5061901;28;20040;-49
2022/05/01 01:22:38;;;;;;;5.93;3.30;;;;;;;;;;5085129;28;20024;-49
2022/05/01 01:25:04;;;;;;;6.82;2.70;;;;;;;;;;5074260;28;20415;-50
2022/05/01 01:27:30;;;;;;;5.30;2.95;;;;;;;;;;5067124;28;20031;-51
2022/05/01 01:32:41;;;;;;;4.10;2.70;;;;;;;;;;5067552;28;20058;-46
2022/05/01 01:35:08;;;;;;;6.00;3.15;;;;;;;;;;5070688;28;20025;-49
2022/05/01 01:37:35;;;;;;;5.22;2.65;;;;;;;;;;5072573;28;20021;-49
2022/05/01 01:40:01;;;;;;;7.75;3.22;;;;;;;;;;5067397;28;20497;-46
2022/05/01 01:42:30;;;;;;;4.45;2.80;;;;;;;;;;5078048;28;20032;-47
2022/05/01 01:44:58;;;;;;;5.32;2.97;;;;;;;;;;5075769;28;20025;-49
2022/05/01 01:47:24;;;;;;;9.00;3.28;;;;;;;;;;5055663;28;20029;-47
2022/05/01 01:49:50;;;;;;;6.35;3.15;;;;;;;;;;5065231;28;20123;-47
2022/05/01 01:52:16;;;;;;;5.07;2.65;;;;;;;;;;5052747;28;20045;-47
2022/05/01 01:54:42;;;;;;;6.40;3.13;;;;;;;;;;5088725;28;20016;-49
2022/05/01 01:57:08;;;;;;;4.28;2.72;;;;;;;;;;5060458;28;20492;-46
2022/05/01 01:59:34;;;;;;;2.35;2.15;;;;;;;;;;5074100;28;20103;-50
2022/05/01 02:02:01;;;;;;;6.32;2.90;;;;;;;;;;5075822;28;20590;-50
2022/05/01 02:04:27;;;;;;;4.63;2.75;;;;;;;;;;5084110;28;20108;-47
2022/05/01 02:06:53;;;;;;;5.70;2.72;;;;;;;;;;5056859;28;20066;-48
2022/05/01 02:09:19;;;;;;;5.00;2.83;;;;;;;;;;5089730;28;20024;-47
2022/05/01 02:11:45;;;;;;;6.88;2.67;;;;;;;;;;5081882;28;20032;-46
2022/05/01 02:14:11;;;;;;;7.22;3.00;;;;;;;;;;5080815;28;20459;-48
2022/05/01 02:16:37;;;;;;;5.78;2.65;;;;;;;;;;5069117;28;20555;-48
2022/05/01 02:19:03;;;;;;;5.80;3.17;;;;;;;;;;5059538;28;20409;-49
2022/05/01 02:21:35;;;;;;;9.00;2.78;;;;;;;;;;5075141;28;20438;-46
2022/05/01 02:24:03;;;;;;;8.57;3.58;;;;;;;;;;5065522;28;20116;-50
2022/05/01 02:26:29;;;;;;;5.55;3.25;;;;;;;;;;5068347;28;20453;-51
2022/05/01 02:28:55;;;;;;;4.65;2.80;;;;;;;;;;5079990;28;20021;-48
2022/05/01 02:31:22;;;;;;;6.07;3.30;;;;;;;;;;5060840;28;20060;-48
2022/05/01 02:33:48;;;;;;;6.35;3.30;;;;;;;;;;5077141;28;20032;-48
2022/05/01 02:36:16;;;;;;;5.78;2.90;;;;;;;;;;5076946;28;20033;-48
2022/05/01 02:38:44;;;;;;;6.28;2.83;;;;;;;;;;5065206;28;20084;-51
2022/05/01 02:41:10;;;;;;;4.25;2.42;;;;;;;;;;5063524;28;20445;-48
2022/05/01 02:43:36;;;;;;;11.27;3.15;;;;;;;;;;5068113;28;20037;-48
2022/05/01 02:46:02;;;;;;;4.55;3.30;;;;;;;;;;5061251;28;20127;-50
2022/05/01 02:48:28;;;;;;;6.78;3.70;;;;;;;;;;5082320;28;20408;-49
2022/05/01 02:50:54;;;;;;;7.82;3.13;;;;;;;;;;5069090;28;20032;-49
2022/05/01 02:53:20;;;;;;;6.80;2.88;;;;;;;;;;5065965;28;20470;-49
2022/05/01 02:55:46;;;;;;;4.97;3.10;;;;;;;;;;5064327;28;20036;-48
2022/05/01 02:58:12;;;;;;;5.72;3.20;;;;;;;;;;5069955;28;20025;-49
2022/05/01 03:00:38;;;;;;;5.00;3.13;;;;;;;;;;5061319;28;20040;-50
2022/05/01 03:03:04;;;;;;;5.18;2.88;;;;;;;;;;5061806;28;20028;-50
2022/05/01 03:05:30;;;;;;;5.68;3.13;;;;;;;;;;5071974;28;20036;-47
2022/05/01 03:07:56;;;;;;;5.65;2.88;;;;;;;;;;5082717;28;20081;-49
2022/05/01 03:10:23;;;;;;;7.93;3.40;;;;;;;;;;5067227;28;20115;-48
2022/05/01 03:12:49;;;;;;;6.05;3.47;;;;;;;;;;5086589;28;20032;-47
2022/05/01 03:15:15;;;;;;;6.20;3.40;;;;;;;;;;5078097;28;20475;-48
2022/05/01 03:23:10;;;;;;;5.88;3.20;;;;;;;;;;5064910;28;20515;-48
2022/05/01 03:25:36;;;;;;;10.75;4.22;;;;;;;;;;5080322;28;20033;-47
2022/05/01 03:28:02;;;;;;;5.97;3.05;;;;;;;;;;5075378;28;20028;-47
2022/05/01 03:30:28;;;;;;;4.68;2.75;;;;;;;;;;5070421;28;20108;-49
2022/05/01 03:32:54;;;;;;;10.18;3.55;;;;;;;;;;5070570;28;20517;-48
2022/05/01 03:35:20;;;;;;;7.38;3.67;;;;;;;;;;5066511;28;20029;-50
2022/05/01 03:37:46;;;;;;;5.28;3.45;;;;;;;;;;5073978;28;20079;-50
2022/05/01 03:40:14;;;;;;;9.68;3.22;;;;;;;;;;5078927;28;20101;-48
2022/05/01 03:42:40;;;;;;;7.05;3.80;;;;;;;;;;5086616;28;20479;-50
2022/05/01 03:45:06;;;;;;;4.32;3.28;;;;;;;;;;5074465;28;20029;-50
2022/05/01 03:47:32;;;;;;;4.93;2.92;;;;;;;;;;5078907;28;20146;-48
2022/05/01 03:49:58;;;;;;;6.13;2.97;;;;;;;;;;5055310;28;20480;-51
2022/05/01 03:52:24;;;;;;;6.05;3.15;;;;;;;;;;5047561;28;20145;-50
2022/05/01 03:54:50;;;;;;;6.88;3.40;;;;;;;;;;5076935;28;20028;-47
2022/05/01 03:57:16;;;;;;;4.00;3.28;;;;;;;;;;5078591;28;20032;-47
2022/05/01 03:59:42;;;;;;;10.95;3.42;;;;;;;;;;5083063;28;20107;-47
2022/05/01 04:02:08;;;;;;;5.00;2.70;;;;;;;;;;5064405;28;20100;-47
2022/05/01 04:04:35;;;;;;;5.55;3.15;;;;;;;;;;5044615;28;20571;-48
2022/05/01 04:07:01;;;;;;;6.03;3.50;;;;;;;;;;5072961;28;20629;-46
2022/05/01 04:09:28;;;;;;;4.20;3.13;;;;;;;;;;5065958;28;20040;-47
2022/05/01 04:11:54;;;;;;;6.15;3.75;;;;;;;;;;5084553;28;20024;-47
2022/05/01 04:14:20;;;;;;;5.70;3.45;;;;;;;;;;5063747;28;20081;-51
2022/05/01 04:16:46;;;;;;;6.70;3.83;;;;;;;;;;5068221;28;20400;-49
2022/05/01 04:19:13;;;;;;;6.18;3.22;;;;;;;;;;5068884;28;20028;-46
2022/05/01 04:21:39;;;;;;;7.07;3.55;;;;;;;;;;5074420;28;20028;-52
2022/05/01 04:24:06;;;;;;;10.70;3.40;;;;;;;;;;5062817;28;20039;-49
2022/05/01 04:26:32;;;;;;;6.13;2.97;;;;;;;;;;5063861;28;20047;-47
2022/05/01 04:31:42;;;;;;;7.25;2.78;;;;;;;;;;5062900;28;20039;-48
2022/05/01 04:34:08;;;;;;;4.47;2.78;;;;;;;;;;5072897;28;20032;-50
2022/05/01 04:36:34;;;;;;;4.65;2.50;;;;;;;;;;5071369;28;20028;-50
2022/05/01 04:39:00;;;;;;;5.13;2.85;;;;;;;;;;5068365;28;20040;-48
2022/05/01 04:41:26;;;;;;;6.22;2.85;;;;;;;;;;5064352;28;20029;-47
2022/05/01 04:43:52;;;;;;;7.70;3.35;;;;;;;;;;5068928;28;20035;-49
2022/05/01 04:46:18;;;;;;;7.97;3.50;;;;;;;;;;5049097;28;20029;-48
2022/05/01 04:48:44;;;;;;;3.70;2.85;;;;;;;;;;5058087;28;20032;-47
2022/05/01 04:51:10;;;;;;;5.85;3.15;;;;;;;;;;5063299;28;20025;-49
2022/05/01 04:53:36;;;;;;;5.88;3.00;;;;;;;;;;5068200;28;20045;-51
2022/05/01 04:58:47;;;;;;;5.88;2.92;;;;;;;;;;5068299;28;20431;-47
2022/05/01 05:01:13;;;;;;;5.93;2.65;;;;;;;;;;5063069;28;20443;-46
2022/05/01 05:03:39;;;;;;;4.03;2.45;;;;;;;;;;5064608;28;20037;-47
2022/05/01 05:06:05;;;;;;;4.72;3.08;;;;;;;;;;5062181;28;20096;-47
2022/05/01 05:11:16;;;;;;;4.35;2.58;;;;;;;;;;5058900;28;20107;-47
2022/05/01 05:13:42;;;;;;;6.95;2.53;;;;;;;;;;5057526;28;20029;-49
2022/05/01 05:16:13;;;;;;;3.58;2.30;;;;;;;;;;5059655;28;20472;-47
2022/05/01 05:18:40;;;;;;;3.55;2.30;;;;;;;;;;5055097;28;20024;-52
2022/05/01 05:21:06;;;;;;;4.43;2.72;;;;;;;;;;5060592;28;20562;-52
2022/05/01 05:23:32;;;;;;;5.70;2.50;;;;;;;;;;5068948;28;20033;-48
2022/05/01 05:25:58;;;;;;;3.97;2.47;;;;;;;;;;5059245;28;20029;-49
2022/05/01 05:28:24;;;;;;;8.82;3.05;;;;;;;;;;5058693;28;20151;-51
2022/05/01 05:30:50;;;;;;;6.90;3.00;;;;;;;;;;5057735;28;20044;-49
2022/05/01 05:33:16;;;;;;;7.20;2.50;;;;;;;;;;5059854;28;20029;-49
2022/05/01 05:35:42;;;;;;;5.95;3.13;;;;;;;;;;5063044;28;20024;-50
2022/05/01 05:38:08;;;;;;;3.45;2.53;;;;;;;;;;5057385;28;20072;-47
2022/05/01 05:40:34;;;;;;;5.88;2.88;;;;;;;;;;5040227;28;20067;-48
2022/05/01 05:43:00;;;;;;;5.20;2.85;;;;;;;;;;5083119;28;20088;-48
2022/05/01 05:45:27;;;;;;;5.18;2.50;;;;;;;;;;5062710;28;20238;-50
2022/05/01 05:47:53;;;;;;;5.18;2.88;;;;;;;;;;5054101;28;20036;-46
2022/05/01 05:50:19;;;;;;;4.20;2.47;;;;;;;;;;5051484;28;20068;-49
2022/05/01 05:52:46;;;;;;;4.43;2.40;;;;;;;;;;5059361;28;20522;-50
2022/05/01 05:55:12;;;;;;;5.45;2.78;;;;;;;;;;5060275;28;20025;-50
2022/05/01 05:57:38;;;;;;;3.50;2.33;;;;;;;;;;5058694;28;20519;-50
2022/05/01 06:00:05;;;;;;;6.63;2.72;;;;;;;;;;5058198;28;20098;-48
2022/05/01 06:02:31;;;;;;;3.88;2.53;;;;;;;;;;5074173;28;20107;-45
2022/05/01 06:04:59;;;;;;;4.55;2.65;;;;;;;;;;5065496;28;20020;-48
2022/05/01 06:07:25;;;;;;;6.10;3.22;;;;;;;;;;5066430;28;20054;-51
2022/05/01 06:09:51;;;;;;;4.18;2.63;;;;;;;;;;5056842;28;20542;-52
2022/05/01 06:12:17;;;;;;;3.47;2.47;;;;;;;;;;5090067;28;20447;-51
2022/05/01 06:14:44;;;;;;;4.88;2.70;;;;;;;;;;5066097;28;20028;-50
2022/05/01 06:17:10;;;;;;;5.18;2.80;;;;;;;;;;5064292;28;20029;-52
2022/05/01 06:19:36;;;;;;;6.82;2.58;;;;;;;;;;5069020;28;20384;-51
2022/05/01 06:22:02;;;;;;;4.72;2.80;;;;;;;;;;5075686;28;20020;-51
2022/05/01 06:24:28;;;;;;;7.05;2.50;;;;;;;;;;5080968;28;20035;-50
2022/05/01 06:26:54;;;;;;;5.78;2.47;;;;;;;;;;5084147;28;20459;-47
2022/05/01 06:29:20;;;;;;;3.63;2.33;;;;;;;;;;5075604;28;20086;-49
2022/05/01 06:31:46;;;;;;;2.92;1.95;;;;;;;;;;5064909;28;20027;-47
2022/05/01 06:34:13;;;;;;;3.72;2.05;;;;;;;;;;5070027;28;20032;-49
2022/05/01 06:36:39;;;;;;;3.92;2.40;;;;;;;;;;5072278;28;20468;-50
2022/05/01 06:39:05;;;;;;;2.90;1.90;;;;;;;;;;5078663;28;20103;-51
2022/05/01 06:41:31;;;;;;;3.70;2.03;;;;;;;;;;5074608;28;20028;-50
2022/05/01 06:43:57;;;;;;;3.22;2.15;;;;;;;;;;5077303;28;20031;-50
2022/05/01 06:46:22;;;;;;;3.53;1.55;;;;;;;;;;5073466;28;20036;-47
2022/05/01 06:48:48;;;;;;;4.28;1.80;;;;;;;;;;5079068;28;20151;-49
2022/05/01 06:51:14;;;;;;;3.53;1.55;;;;;;;;;;5071326;28;20035;-50
2022/05/01 06:53:41;;;;;;;3.33;1.77;;;;;;;;;;5073233;28;20325;-50
2022/05/01 06:56:07;;;;;;;2.47;2.17;;;;;;;;;;5060083;28;20051;-49
2022/05/01 06:58:35;;;;;;;4.03;1.80;;;;;;;;;;5066123;28;20017;-51
2022/05/01 07:01:01;;;;;;;2.38;1.63;;;;;;;;;;5071790;28;20020;-51
2022/05/01 07:03:27;;;;;;;6.28;1.80;;;;;;;;;;5075088;28;20032;-52
2022/05/01 07:05:54;;;;;;;5.28;2.28;;;;;;;;;;5067144;28;21263;-50
2022/05/01 07:08:20;;;;;;;4.25;1.83;;;;;;;;;;5054424;28;20040;-50
2022/05/01 07:10:46;;;;;;;4.10;1.90;;;;;;;;;;5072355;28;20480;-48
2022/05/01 07:13:12;;;;;;;3.65;1.63;;;;;;;;;;5090099;28;20472;-49
2022/05/01 07:15:38;;;;;;;4.72;1.95;;;;;;;;;;5071620;28;20115;-50
2022/05/01 07:18:05;;;;;;;6.03;2.13;;;;;;;;;;5065737;28;20115;-52
2022/05/01 07:20:34;;;;;;;10.95;2.10;;;;;;;;;;5067315;28;20019;-46
2022/05/01 07:23:00;;;;;;;5.68;2.30;;;;;;;;;;5080038;28;20020;-49
2022/05/01 07:25:26;;;;;;;4.43;1.75;;;;;;;;;;5063798;28;20031;-51
2022/05/01 07:27:52;;;;;;;5.50;2.10;;;;;;;;;;5081237;28;20112;-50
2022/05/01 07:30:18;;;;;;;4.10;2.00;;;;;;;;;;5059724;28;20043;-49
2022/05/01 07:32:44;;;;;;;6.10;2.15;;;;;;;;;;5064352;28;20584;-47
2022/05/01 07:35:10;;;;;;;5.65;2.00;;;;;;;;;;5063171;28;20045;-50
2022/05/01 07:37:36;;;;;;;2.72;1.60;;;;;;;;;;5085871;28;20024;-52
2022/05/01 07:40:02;;;;;;;7.18;1.52;;;;;;;;;;5080701;28;20387;-52
2022/05/01 07:42:28;;;;;;;3.53;2.00;;;;;;;;;;5060869;28;20073;-52
2022/05/01 07:44:55;;;;;;;4.85;1.67;;;;;;;;;;5064860;28;20024;-52
2022/05/01 07:47:20;;;;;;;3.80;1.35;;;;;;;;;;5058574;28;20038;-54
2022/05/01 07:49:46;;;;;;;3.58;1.33;;;;;;;;;;5066947;28;20020;-50
2022/05/01 07:52:13;;;;;;;3.47;1.20;;;;;;;;;;5082940;28;20047;-48
2022/05/01 07:54:39;;;;;;;5.88;1.52;;;;;;;;;;5092133;28;20410;-52
2022/05/01 07:57:05;;;;;;;3.05;1.30;;;;;;;;;;5091877;28;20028;-49
2022/05/01 07:59:31;;;;;;;3.22;1.20;;;;;;;;;;5072518;28;20051;-50
2022/05/01 08:01:57;;;;;;;8.40;1.52;;;;;;;;;;5072686;28;20032;-48
2022/05/01 08:04:29;;;;;;;1.90;1.15;;;;;;;;;;5075007;28;20024;-51
2022/05/01 08:06:58;;;;;;;2.65;1.50;;;;;;;;;;5075237;28;20546;-52
2022/05/01 08:09:25;;;;;;;2.95;1.20;;;;;;;;;;5087125;28;20031;-52
2022/05/01 08:11:51;;;;;;;3.35;1.23;;;;;;;;;;5067898;28;20110;-51
2022/05/01 08:14:17;;;;;;;2.20;1.02;;;;;;;;;;5067032;28;20028;-48
2022/05/01 08:16:43;;;;;;;3.58;1.27;;;;;;;;;;5062180;28;20032;-50
2022/05/01 08:21:54;;;;;;;2.20;1.20;;;;;;;;;;5062082;28;20032;-50
2022/05/01 08:24:20;;;;;;;1.48;1.13;;;;;;;;;;5040660;28;20476;-52
2022/05/01 08:26:48;;;;;;;6.50;1.40;;;;;;;;;;5056150;28;20033;-51
2022/05/01 08:29:14;;;;;;;3.83;1.77;;;;;;;;;;5052532;28;20492;-52
2022/05/01 08:31:41;;;;;;;3.70;0.90;;;;;;;;;;5078216;28;20036;-50
2022/05/01 08:34:07;;;;;;;4.43;0.90;;;;;;;;;;5073083;28;20029;-51
2022/05/01 08:36:34;;;;;;;1.27;0.93;;;;;;;;;;5056204;28;20029;-47
2022/05/01 08:39:00;;;;;;;2.53;0.85;;;;;;;;;;5066024;28;20025;-52
2022/05/01 08:41:29;;;;;;;4.72;1.27;;;;;;;;;;5056604;28;20032;-51
2022/05/01 08:43:56;;;;;;;0.98;0.75;;;;;;;;;;5057079;28;20465;-51
2022/05/01 08:46:28;;;;;;;2.60;1.30;;;;;;;;;;5070471;28;20037;-53
2022/05/01 08:49:05;;;;;;;1.20;0.90;;;;;;;;;;5066737;28;20033;-50
2022/05/01 08:51:32;;;;;;;2.22;1.17;;;;;;;;;;5074271;28;20067;-53
2022/05/01 08:53:58;;;;;;;2.95;1.65;;;;;;;;;;5088391;28;20407;-50
2022/05/01 08:56:27;;;;;;;2.35;0.90;;;;;;;;;;5066939;28;20036;-53
2022/05/01 08:58:54;;;;;;;2.97;1.02;;;;;;;;;;5056348;28;20039;-54
2022/05/01 09:01:21;;;;;;;1.80;1.08;;;;;;;;;;5061085;28;20025;-49
2022/05/01 09:03:47;;;;;;;7.45;1.45;;;;;;;;;;5074639;28;20029;-50
2022/05/01 09:06:13;;;;;;;2.58;1.50;;;;;;;;;;5055847;28;20062;-52
2022/05/01 09:08:42;;;;;;;2.55;1.10;;;;;;;;;;5054434;28;20066;-48
2022/05/01 09:13:54;;;;;;;1.85;0.90;;;;;;;;;;5070864;28;20067;-50
2022/05/01 09:16:20;;;;;;;3.97;1.60;;;;;;;;;;5086681;28;20109;-46
2022/05/01 09:18:46;;;;;;;2.10;1.25;;;;;;;;;;5061621;28;20021;-50
2022/05/01 09:21:13;;;;;;;8.13;1.63;;;;;;;;;;5063312;28;20032;-51
2022/05/01 09:23:46;;;;;;;4.30;1.80;;;;;;;;;;5073372;28;20029;-50
2022/05/01 09:26:13;;;;;;;6.18;1.40;;;;;;;;;;5085182;28;20058;-51
2022/05/01 09:28:48;;;;;;;2.03;1.15;;;;;;;;;;5065910;28;20029;-50
2022/05/01 09:31:14;;;;;;;3.10;1.45;;;;;;;;;;5063300;28;20084;-50
2022/05/01 09:33:39;;;;;;;3.90;1.38;;;;;;;;;;5080879;28;20099;-50
2022/05/01 09:36:06;;;;;;;2.20;1.17;;;;;;;;;;5066351;28;20552;-48
2022/05/01 09:38:32;;;;;;;4.50;1.85;;;;;;;;;;5062524;28;20024;-51
2022/05/01 09:41:01;;;;;;;3.67;1.35;;;;;;;;;;5065454;28;20020;-47
2022/05/01 09:43:36;;;;;;;4.25;1.45;;;;;;;;;;5074767;28;20675;-51
2022/05/01 09:46:22;;;;;;;3.83;1.00;;;;;;;;;;5060527;28;20028;-47
2022/05/01 09:49:07;;;;;;;5.07;1.73;;;;;;;;;;5082812;28;20103;-47
2022/05/01 09:51:34;;;;;;;2.33;1.35;;;;;;;;;;5080712;28;20052;-50
2022/05/01 09:54:01;;;;;;;2.75;1.70;;;;;;;;;;5067161;28;20036;-48
2022/05/01 09:56:27;;;;;;;5.20;1.25;;;;;;;;;;5065918;28;20028;-47
2022/05/01 09:59:00;;;;;;;4.20;1.30;;;;;;;;;;5060803;28;20368;-46
2022/05/01 10:01:27;;;;;;;2.35;1.15;;;;;;;;;;5060679;28;20052;-52
2022/05/01 10:03:54;;;;;;;3.35;1.20;;;;;;;;;;5069312;28;20067;-48
2022/05/01 10:06:20;;;;;;;6.55;1.40;;;;;;;;;;5077842;28;20024;-51
2022/05/01 10:08:47;;;;;;;2.42;1.20;;;;;;;;;;5074245;28;20148;-50
2022/05/01 10:11:16;;;;;;;4.30;1.30;;;;;;;;;;5060733;28;20036;-50
2022/05/01 10:13:43;;;;;;;10.63;1.17;;;;;;;;;;5079610;28;20040;-50
2022/05/01 10:16:11;;;;;;;1.35;0.82;;;;;;;;;;5063289;28;20059;-47
2022/05/01 10:18:37;;;;;;;3.53;1.10;;;;;;;;;;5085378;28;20039;-49
2022/05/01 10:21:04;;;;;;;3.53;1.20;;;;;;;;;;5064515;28;20028;-51
2022/05/01 10:23:30;;;;;;;2.42;1.30;;;;;;;;;;5071315;28;20349;-51
2022/05/01 10:25:59;;;;;;;2.00;0.98;;;;;;;;;;5069141;28;20028;-50
2022/05/01 10:28:34;;;;;;;2.13;1.33;;;;;;;;;;5062362;28;20144;-50
2022/05/01 10:34:03;;;;;;;5.75;1.17;;;;;;;;;;5078128;28;20101;-50
2022/05/01 10:36:29;;;;;;;2.50;1.20;;;;;;;;;;5068184;28;20101;-52
2022/05/01 10:39:02;;;;;;;2.58;1.15;;;;;;;;;;5071172;28;20477;-51
2022/05/01 10:41:29;;;;;;;2.78;0.93;;;;;;;;;;5069658;28;20472;-46
2022/05/01 10:43:57;;;;;;;3.85;1.20;;;;;;;;;;5076142;28;20421;-48
2022/05/01 10:46:23;;;;;;;2.70;1.50;;;;;;;;;;5067635;28;20040;-50
2022/05/01 10:48:49;;;;;;;2.40;1.30;;;;;;;;;;5081858;28;20044;-53
2022/05/01 10:51:49;;;;;;;3.97;1.38;;;;;;;;;;5068182;28;20029;-46
2022/05/01 10:54:19;;;;;;;3.60;1.30;;;;;;;;;;5066596;28;20480;-49
2022/05/01 10:56:52;;;;;;;4.38;1.58;;;;;;;;;;5076058;28;20111;-50
2022/05/01 10:59:38;;;;;;;6.90;1.60;;;;;;;;;;5083605;28;20045;-50
2022/05/01 11:02:05;;;;;;;2.42;1.50;;;;;;;;;;5069876;28;20094;-48
2022/05/01 11:04:42;;;;;;;3.40;1.30;;;;;;;;;;5071024;28;20100;-47
2022/05/01 11:07:13;;;;;;;2.72;1.10;;;;;;;;;;5062370;28;20024;-50
2022/05/01 11:09:41;;;;;;;4.03;1.40;;;;;;;;;;5074996;28;20024;-50
2022/05/01 11:12:09;;;;;;;5.30;1.38;;;;;;;;;;5077934;28;20490;-51
2022/05/01 11:14:42;;;;;;;2.60;1.27;;;;;;;;;;5071109;28;20116;-47
2022/05/01 11:17:08;;;;;;;3.78;1.40;;;;;;;;;;5066371;28;20101;-48
2022/05/01 11:19:45;;;;;;;5.03;1.40;;;;;;;;;;5070434;28;20467;-48
2022/05/01 11:22:12;;;;;;;2.90;1.48;;;;;;;;;;5066827;28;20043;-47
2022/05/01 11:24:42;;;;;;;2.33;1.70;;;;;;;;;;5077722;28;20027;-48
2022/05/01 11:27:11;;;;;;;3.58;1.58;;;;;;;;;;5069211;28;20076;-49
2022/05/01 11:29:38;;;;;;;2.63;1.40;;;;;;;;;;5059318;28;20029;-49
2022/05/01 11:32:17;;;;;;;3.95;1.60;;;;;;;;;;5071965;28;20039;-48
2022/05/01 11:34:51;;;;;;;2.40;1.80;;;;;;;;;;5059669;28;20473;-50
2022/05/01 11:37:17;;;;;;;4.15;1.27;;;;;;;;;;5063036;28;20029;-52
2022/05/01 11:39:49;;;;;;;3.45;1.55;;;;;;;;;;5073858;28;20448;-48
2022/05/01 11:42:24;;;;;;;2.78;1.45;;;;;;;;;;5045666;28;20021;-48
2022/05/01 11:44:50;;;;;;;3.50;1.50;;;;;;;;;;5070390;28;20012;-52
2022/05/01 11:47:20;;;;;;;2.83;1.55;;;;;;;;;;5062940;28;20040;-51
2022/05/01 11:49:46;;;;;;;4.72;1.50;;;;;;;;;;5061419;28;20036;-50
2022/05/01 11:52:13;;;;;;;16.48;2.10;;;;;;;;;;5071773;28;20040;-52
2022/05/01 11:54:45;;;;;;;4.70;1.65;;;;;;;;;;5071081;28;20032;-48
2022/05/01 12:02:40;;;;;;;6.72;1.60;;;;;;;;;;5075554;28;20045;-52
2022/05/01 12:05:06;;;;;;;6.65;1.77;;;;;;;;;;5059375;28;20013;-50
2022/05/01 12:07:32;;;;;;;3.45;1.45;;;;;;;;;;5083538;28;20030;-49
2022/05/01 12:09:58;;;;;;;2.22;1.23;;;;;;;;;;5091146;28;20387;-53
2022/05/01 12:12:29;;;;;;;4.70;1.38;;;;;;;;;;5085699;28;20085;-51
2022/05/01 12:14:55;;;;;;;3.70;1.30;;;;;;;;;;5078773;28;20488;-51
2022/05/01 12:17:21;;;;;;;1.75;1.10;;;;;;;;;;5069105;28;20032;-50
2022/05/01 12:19:49;;;;;;;3.47;1.52;;;;;;;;;;5071008;28;20482;-49
2022/05/01 12:22:16;;;;;;;1.60;0.98;;;;;;;;;;5052023;28;20037;-52
2022/05/01 12:24:43;;;;;;;3.65;1.00;;;;;;;;;;5069491;28;20067;-50
2022/05/01 12:27:09;;;;;;;2.25;1.00;;;;;;;;;;5063247;28;20024;-51
2022/05/01 12:29:36;;;;;;;1.77;0.98;;;;;;;;;;5063263;28;20036;-47
2022/05/01 12:32:06;;;;;;;1.67;0.98;;;;;;;;;;5071180;28;20140;-50
2022/05/01 12:34:33;;;;;;;2.53;1.00;;;;;;;;;;5063581;28;20088;-51
2022/05/01 12:37:01;;;;;;;2.05;1.40;;;;;;;;;;5065647;28;20036;-47
2022/05/01 12:39:27;;;;;;;2.75;1.30;;;;;;;;;;5074512;28;20028;-50
2022/05/01 12:45:09;;;;;;;3.35;0.90;;;;;;;;;;5061811;28;20102;-48
2022/05/01 12:47:37;;;;;;;2.38;0.98;;;;;;;;;;5064053;28;20024;-51
2022/05/01 12:50:03;;;;;;;2.83;1.02;;;;;;;;;;5065915;28;20031;-47
2022/05/01 12:52:33;;;;;;;2.63;1.02;;;;;;;;;;5067068;28;20147;-49
2022/05/01 12:55:06;;;;;;;4.72;1.35;;;;;;;;;;5057244;28;20542;-50
2022/05/01 12:57:32;;;;;;;1.58;1.08;;;;;;;;;;5053563;28;20024;-50
2022/05/01 12:59:58;;;;;;;2.63;1.20;;;;;;;;;;5060828;28;20108;-51
2022/05/01 13:02:24;;;;;;;2.17;1.10;;;;;;;;;;5058920;28;20055;-50
2022/05/01 13:04:58;;;;;;;3.05;1.10;;;;;;;;;;5060025;28;20131;-47
2022/05/01 13:07:30;;;;;;;1.77;1.10;;;;;;;;;;5068768;28;20086;-49
2022/05/01 13:09:56;;;;;;;2.97;1.07;;;;;;;;;;5068496;28;20027;-48
2022/05/01 13:12:34;;;;;;;2.10;1.10;;;;;;;;;;5061418;28;20400;-49
2022/05/01 13:15:04;;;;;;;2.15;1.10;;;;;;;;;;5061097;28;20112;-49
2022/05/01 13:17:31;;;;;;;3.65;1.60;;;;;;;;;;5062393;28;20123;-49
2022/05/01 13:19:58;;;;;;;2.30;1.13;;;;;;;;;;5068515;28;20035;-52
2022/05/01 13:22:24;;;;;;;3.35;1.08;;;;;;;;;;5066957;28;20036;-47
2022/05/01 13:24:54;;;;;;;3.08;0.90;;;;;;;;;;5059053;28;20529;-48
2022/05/01 13:27:22;;;;;;;2.22;1.13;;;;;;;;;;5061865;28;20122;-52
2022/05/01 13:29:48;;;;;;;5.20;1.40;;;;;;;;;;5078944;28;20033;-49
2022/05/01 13:32:15;;;;;;;2.72;1.00;;;;;;;;;;5074532;28;20048;-52
2022/05/01 13:34:44;;;;;;;1.45;0.80;;;;;;;;;;5074185;28;20113;-48
2022/05/01 13:37:10;;;;;;;2.22;1.00;;;;;;;;;;5056391;28;20550;-49
2022/05/01 13:45:06;;;;;;;1.60;0.88;;;;;;;;;;5064825;28;20114;-51
2022/05/01 13:47:33;;;;;;;3.72;0.90;;;;;;;;;;5072905;28;20052;-47
2022/05/01 13:50:00;;;;;;;2.60;1.08;;;;;;;;;;5069960;28;20025;-46
2022/05/01 13:52:25;;;;;;;2.88;0.80;;;;;;;;;;5078158;28;20500;-47
2022/05/01 13:54:52;;;;;;;1.40;0.88;;;;;;;;;;5063285;28;20035;-49
2022/05/01 13:57:19;;;;;;;1.50;0.60;;;;;;;;;;5066921;28;20052;-52
2022/05/01 13:59:45;;;;;;;1.50;0.65;;;;;;;;;;5075010;28;20098;-50
2022/05/01 14:02:11;;;;;;;1.10;0.63;;;;;;;;;;5087602;28;20032;-49
2022/05/01 14:04:38;;;;;;;7.25;0.95;;;;;;;;;;5073337;28;20821;-50
2022/05/01 14:07:04;;;;;;;3.97;1.85;;;;;;;;;;5068975;28;20547;-47
2022/05/01 14:09:30;;;;;;;3.10;0.82;;;;;;;;;;5042484;28;20094;-50
2022/05/01 14:11:57;;;;;;;3.55;1.08;;;;;;;;;;5070021;28;20067;-53
2022/05/01 14:14:24;;;;;;;2.40;0.90;;;;;;;;;;5064270;28;20025;-50
2022/05/01 14:16:52;;;;;;;2.70;0.75;;;;;;;;;;5072287;28;20456;-49
2022/05/01 14:19:22;;;;;;;1.80;0.98;;;;;;;;;;5071913;28;20029;-48
2022/05/01 14:21:49;;;;;;;2.13;1.15;;;;;;;;;;5073631;28;20028;-51
2022/05/01 14:24:16;;;;;;;2.40;1.10;;;;;;;;;;5082534;28;20048;-47
2022/05/01 14:26:42;;;;;;;5.40;1.08;;;;;;;;;;5072406;28;20033;-51
2022/05/01 14:29:09;;;;;;;2.75;1.10;;;;;;;;;;5062400;28;20032;-47
2022/05/01 14:31:50;;;;;;;1.95;1.25;;;;;;;;;;5087191;28;20124;-48
2022/05/01 14:34:26;;;;;;;2.35;1.08;;;;;;;;;;5071431;28;20029;-48
2022/05/01 14:37:01;;;;;;;4.43;1.17;;;;;;;;;;5072538;28;20440;-46
2022/05/01 14:39:28;;;;;;;5.10;1.48;;;;;;;;;;5093450;28;20680;-46
2022/05/01 14:41:55;;;;;;;3.05;1.13;;;;;;;;;;5093058;28;20051;-48
2022/05/01 14:44:31;;;;;;;3.45;1.50;;;;;;;;;;5076815;28;20527;-46
2022/05/01 14:46:58;;;;;;;2.70;1.52;;;;;;;;;;5073670;28;20032;-51
2022/05/01 14:49:43;;;;;;;2.92;1.55;;;;;;;;;;5048345;28;20036;-49
2022/05/01 14:52:11;;;;;;;2.78;1.40;;;;;;;;;;5073001;28;20068;-48
2022/05/01 14:54:38;;;;;;;3.78;1.30;;;;;;;;;;5085485;28;20086;-51
2022/05/01 14:57:10;;;;;;;3.25;1.40;;;;;;;;;;5068777;28;20027;-51
2022/05/01 15:08:04;;;;;;;4.47;1.50;;;;;;;;;;5061787;28;20128;-49
2022/05/01 15:10:30;;;;;;;3.15;1.60;;;;;;;;;;5059310;28;20051;-51
2022/05/01 15:12:56;;;;;;;2.63;1.48;;;;;;;;;;5070341;28;20085;-47
2022/05/01 15:15:23;;;;;;;4.05;1.60;;;;;;;;;;5067306;28;20035;-47
2022/05/01 15:17:51;;;;;;;4.80;1.25;;;;;;;;;;5064320;28;20447;-47
2022/05/01 15:20:20;;;;;;;3.38;1.50;;;;;;;;;;5065322;28;20353;-48
2022/05/01 15:22:49;;;;;;;2.17;1.55;;;;;;;;;;5055527;28;20101;-47
2022/05/01 15:25:17;;;;;;;1.55;1.15;;;;;;;;;;5065522;28;20028;-49
2022/05/01 15:28:04;;;;;;;2.67;1.60;;;;;;;;;;5052074;28;20035;-47
2022/05/01 15:30:35;;;;;;;6.43;2.13;;;;;;;;;;5068441;28;20032;-50
2022/05/01 15:33:42;;;;;;;2.88;1.27;;;;;;;;;;5060456;28;20031;-49
2022/05/01 15:36:09;;;;;;;4.35;1.60;;;;;;;;;;5070926;28;20036;-48
2022/05/01 15:38:39;;;;;;;2.60;1.50;;;;;;;;;;5076925;28;20035;-49
2022/05/01 15:41:11;;;;;;;2.78;1.38;;;;;;;;;;5062943;28;20021;-50